createdAt,value
2022-08-17T00:04:11.759Z,45.26
2022-08-17T00:09:11.108Z,44.90
2022-08-17T00:14:19.979Z,45.50
2022-08-17T00:19:23.160Z,44.93
2022-08-17T00:24:22.305Z,46.00
2022-08-17T00:29:24.996Z,45.95
2022-08-17T00:34:25.445Z,46.25
2022-08-17T00:39:27.130Z,46.12
2022-08-17T00:44:30.298Z,46.40
2022-08-17T00:49:31.732Z,46.37
2022-08-17T00:54:42.123Z,46.19
2022-08-17T01:00:01.955Z,46.34
2022-08-17T01:05:03.930Z,46.55
2022-08-17T01:10:07.726Z,46.84
2022-08-17T01:15:27.376Z,46.61
2022-08-17T01:20:28.102Z,47.53
2022-08-17T01:25:30.695Z,46.90
2022-08-17T01:30:58.987Z,46.66
2022-08-17T01:35:51.517Z,46.66
2022-08-17T01:40:57.730Z,46.77
2022-08-17T01:46:02.805Z,46.74
2022-08-17T01:51:03.138Z,46.39
2022-08-17T01:56:09.526Z,46.50
2022-08-17T02:01:10.307Z,46.56
2022-08-17T02:06:27.196Z,46.44
2022-08-17T02:11:28.679Z,46.52
2022-08-17T02:16:28.869Z,46.46
2022-08-17T02:21:37.142Z,46.69
2022-08-17T02:26:37.841Z,46.20
2022-08-17T02:31:37.977Z,46.17
2022-08-17T02:36:38.111Z,46.29
2022-08-17T02:41:38.956Z,46.38
2022-08-17T02:46:38.594Z,46.42
2022-08-17T02:51:37.804Z,46.85
2022-08-17T02:56:38.305Z,47.04
2022-08-17T03:01:37.339Z,47.14
2022-08-17T03:06:44.082Z,47.24
2022-08-17T03:11:44.709Z,47.69
2022-08-17T03:16:43.885Z,47.85
2022-08-17T03:21:43.026Z,47.47
2022-08-17T03:26:43.068Z,48.19
2022-08-17T03:31:43.514Z,47.87
2022-08-17T03:36:45.390Z,48.40
2022-08-17T03:41:45.385Z,48.14
2022-08-17T03:47:04.947Z,48.42
2022-08-17T03:52:22.441Z,48.44
2022-08-17T03:57:21.919Z,48.43
2022-08-17T04:02:25.543Z,47.92
2022-08-17T04:07:27.782Z,48.17
2022-08-17T04:12:31.124Z,48.17
2022-08-17T04:17:32.292Z,48.45
2022-08-17T04:22:34.381Z,48.51
2022-08-17T04:27:34.315Z,49.19
2022-08-17T04:33:04.215Z,48.88
2022-08-17T04:37:54.437Z,49.20
2022-08-17T04:43:03.018Z,49.75
2022-08-17T04:48:04.445Z,52.28
2022-08-17T04:53:04.383Z,52.53
2022-08-17T04:58:03.515Z,53.15
2022-08-17T05:03:06.928Z,53.26
2022-08-17T05:08:08.270Z,52.75
2022-08-17T05:13:11.427Z,52.61
2022-08-17T05:18:13.342Z,53.10
2022-08-17T05:23:23.213Z,52.20
2022-08-17T05:28:28.010Z,52.08
2022-08-17T05:33:42.674Z,52.66
2022-08-17T05:38:47.035Z,52.84
2022-08-17T05:43:58.301Z,51.87
2022-08-17T05:49:08.077Z,52.59
2022-08-17T05:54:16.376Z,51.46
2022-08-17T05:59:25.683Z,51.11
2022-08-17T06:04:48.498Z,51.44
2022-08-17T06:10:15.158Z,50.14
2022-08-17T06:16:05.175Z,51.66
2022-08-17T06:22:03.365Z,51.30
2022-08-17T06:27:31.792Z,50.37
2022-08-17T06:32:34.197Z,51.19
2022-08-17T06:38:00.915Z,50.03
2022-08-17T06:43:24.501Z,49.96
2022-08-17T06:48:37.478Z,50.14
2022-08-17T06:53:45.702Z,49.98
2022-08-17T06:58:52.796Z,48.87
2022-08-17T07:04:00.319Z,49.13
2022-08-17T07:09:13.254Z,48.30
2022-08-17T07:14:39.469Z,47.91
2022-08-17T07:19:48.244Z,48.00
2022-08-17T07:24:57.411Z,47.41
2022-08-17T07:30:10.951Z,47.14
2022-08-17T07:35:16.014Z,46.60
2022-08-17T07:40:27.708Z,45.95
2022-08-17T07:51:01.133Z,45.20
2022-08-17T07:56:05.391Z,45.08
2022-08-17T08:01:09.086Z,44.38
2022-08-17T08:06:21.231Z,43.62
2022-08-17T08:11:35.101Z,42.97
2022-08-17T08:16:37.068Z,42.90
2022-08-17T08:21:46.684Z,43.40
2022-08-17T08:27:02.077Z,42.65
2022-08-17T08:32:43.561Z,41.83
2022-08-17T08:38:09.789Z,41.26
2022-08-17T08:43:23.698Z,40.08
2022-08-17T08:48:58.309Z,38.90
2022-08-17T08:54:27.320Z,37.56
2022-08-17T08:59:41.821Z,35.17
2022-08-17T09:05:13.993Z,33.92
2022-08-17T09:10:26.168Z,33.25
2022-08-17T09:15:38.592Z,31.92
2022-08-17T09:26:46.616Z,29.83
2022-08-17T09:32:02.028Z,28.87
2022-08-17T09:37:26.178Z,27.70
2022-08-17T09:42:38.327Z,26.83
2022-08-17T09:47:46.979Z,26.48
2022-08-17T09:52:47.991Z,26.12
2022-08-17T09:58:30.357Z,26.38
2022-08-17T10:04:03.065Z,25.04
2022-08-17T10:09:16.272Z,24.81
2022-08-17T10:14:37.653Z,23.54
2022-08-17T10:19:54.613Z,24.71
2022-08-17T10:25:23.974Z,23.89
2022-08-17T10:30:27.983Z,25.13
2022-08-17T10:35:36.486Z,24.22
2022-08-17T10:40:45.680Z,23.48
2022-08-17T10:46:09.450Z,23.19
2022-08-17T10:51:43.734Z,21.90
2022-08-17T10:57:02.995Z,21.38
2022-08-17T11:02:19.720Z,20.99
2022-08-17T11:07:47.422Z,20.05
2022-08-17T11:13:13.648Z,20.18
2022-08-17T11:24:39.009Z,18.62
2022-08-17T11:30:43.556Z,18.94
2022-08-17T11:35:52.913Z,19.22
2022-08-17T11:41:17.166Z,18.70
2022-08-17T11:47:00.841Z,19.17
2022-08-17T11:59:01.141Z,17.75
2022-08-17T12:04:38.123Z,16.70
2022-08-17T12:15:36.318Z,17.06
2022-08-17T12:21:18.251Z,16.04
2022-08-17T12:32:41.000Z,15.04
2022-08-17T12:38:00.111Z,15.07
2022-08-17T12:43:08.052Z,14.45
2022-08-17T12:48:31.374Z,14.09
2022-08-17T12:53:35.505Z,13.17
2022-08-17T12:58:47.833Z,13.48
2022-08-17T13:04:16.346Z,13.42
2022-08-17T13:09:40.773Z,12.90
2022-08-17T13:14:49.868Z,12.21
2022-08-17T13:19:52.363Z,12.85
2022-08-17T13:24:57.713Z,13.31
2022-08-17T13:30:06.560Z,13.36
2022-08-17T13:35:50.436Z,12.62
2022-08-17T13:40:59.683Z,13.05
2022-08-17T13:46:29.418Z,13.18
2022-08-17T13:51:39.165Z,13.58
2022-08-17T13:56:52.398Z,13.69
2022-08-17T14:01:59.023Z,14.52
2022-08-17T14:07:03.053Z,16.01
2022-08-17T14:12:03.850Z,17.45
2022-08-17T14:17:06.279Z,17.88
2022-08-17T14:22:19.740Z,18.11
2022-08-17T14:27:22.476Z,18.08
2022-08-17T14:32:27.241Z,18.53
2022-08-17T14:37:30.071Z,17.79
2022-08-17T14:42:33.293Z,17.32
2022-08-17T14:47:33.184Z,16.18
2022-08-17T14:52:34.580Z,15.75
2022-08-17T14:57:42.032Z,15.26
2022-08-17T15:02:48.619Z,14.23
2022-08-17T15:07:49.562Z,15.28
2022-08-17T15:12:49.255Z,14.85
2022-08-17T15:17:54.530Z,14.47
2022-08-17T15:22:57.476Z,14.67
2022-08-17T15:27:56.779Z,14.61
2022-08-17T15:32:58.395Z,14.95
2022-08-17T15:38:09.881Z,15.52
2022-08-17T15:43:12.352Z,15.66
2022-08-17T15:48:14.597Z,16.54
2022-08-17T15:53:16.267Z,18.34
2022-08-17T15:58:15.496Z,19.61
2022-08-17T16:03:59.392Z,20.95
2022-08-17T16:08:44.198Z,21.35
2022-08-17T16:13:51.296Z,21.94
2022-08-17T16:18:58.712Z,22.94
2022-08-17T16:24:03.912Z,23.55
2022-08-17T16:29:07.937Z,24.11
2022-08-17T16:34:16.952Z,24.23
2022-08-17T16:39:19.061Z,24.35
2022-08-17T16:44:21.110Z,24.11
2022-08-17T16:49:34.442Z,24.16
2022-08-17T16:54:39.538Z,24.49
2022-08-17T16:59:43.695Z,24.57
2022-08-17T17:04:53.589Z,25.53
2022-08-17T17:10:00.859Z,25.97
2022-08-17T17:15:02.716Z,26.10
2022-08-17T17:20:17.314Z,26.27
2022-08-17T17:25:28.690Z,26.21
2022-08-17T17:30:36.934Z,26.31
2022-08-17T17:35:51.050Z,26.55
2022-08-17T17:40:56.119Z,26.62
2022-08-17T17:46:27.292Z,27.28
2022-08-17T17:52:06.606Z,27.63
2022-08-17T17:57:05.083Z,27.64
2022-08-17T18:02:34.832Z,28.13
2022-08-17T18:07:40.609Z,28.63
2022-08-17T18:12:50.126Z,28.51
2022-08-17T18:18:33.329Z,28.62
2022-08-17T18:23:33.244Z,29.74
2022-08-17T18:28:45.673Z,29.89
2022-08-17T18:33:48.445Z,30.58
2022-08-17T18:38:47.590Z,30.62
2022-08-17T18:44:01.711Z,30.70
2022-08-17T18:49:03.863Z,31.47
2022-08-17T18:54:15.656Z,31.43
2022-08-17T18:59:33.850Z,31.97
2022-08-17T19:04:36.786Z,31.74
2022-08-17T19:09:38.875Z,31.72
2022-08-17T19:14:39.449Z,31.59
2022-08-17T19:19:45.397Z,31.67
2022-08-17T19:24:49.392Z,32.16
2022-08-17T19:29:56.315Z,31.98
2022-08-17T19:34:56.522Z,32.05
2022-08-17T19:40:07.868Z,31.52
2022-08-17T19:45:20.852Z,32.01
2022-08-17T19:50:26.708Z,31.95
2022-08-17T19:55:32.916Z,31.64
2022-08-17T20:00:40.111Z,31.58
2022-08-17T20:06:10.979Z,32.28
2022-08-17T20:11:11.449Z,32.34
2022-08-17T20:16:13.573Z,33.00
2022-08-17T20:21:20.187Z,33.15
2022-08-17T20:26:24.196Z,33.87
2022-08-17T20:31:45.638Z,33.82
2022-08-17T20:37:00.166Z,33.90
2022-08-17T20:42:09.417Z,34.31
2022-08-17T20:47:14.131Z,34.20
2022-08-17T20:52:16.725Z,34.92
2022-08-17T20:57:48.660Z,34.88
2022-08-17T21:02:52.157Z,35.38
2022-08-17T21:07:58.059Z,35.59
2022-08-17T21:13:05.670Z,36.14
2022-08-17T21:18:18.516Z,36.00
2022-08-17T21:23:44.059Z,36.41
2022-08-17T21:29:00.542Z,36.52
2022-08-17T21:34:29.076Z,36.73
2022-08-17T21:39:34.861Z,36.57
2022-08-17T21:44:36.878Z,36.64
2022-08-17T21:49:37.780Z,36.56
2022-08-17T21:54:39.036Z,37.37
2022-08-17T21:59:40.136Z,36.99
2022-08-17T22:04:42.895Z,37.78
2022-08-17T22:09:45.060Z,37.72
2022-08-17T22:14:51.728Z,37.51
2022-08-17T22:20:03.133Z,37.67
2022-08-17T22:25:04.299Z,37.74
2022-08-17T22:30:17.925Z,37.85
2022-08-17T22:35:37.184Z,38.25
2022-08-17T22:40:36.136Z,38.48
2022-08-17T22:45:47.054Z,39.26
2022-08-17T22:50:47.505Z,39.37
2022-08-17T22:56:09.705Z,39.35
2022-08-17T23:01:26.983Z,39.72
2022-08-17T23:06:27.385Z,39.87
2022-08-17T23:11:36.676Z,39.63
2022-08-17T23:16:47.411Z,40.30
2022-08-17T23:21:54.085Z,40.39
2022-08-17T23:26:53.268Z,40.55
2022-08-17T23:31:52.740Z,40.67
2022-08-17T23:36:53.318Z,41.79
2022-08-17T23:41:53.964Z,42.04
2022-08-17T23:46:53.549Z,42.88
2022-08-17T23:51:55.326Z,42.89
2022-08-17T23:56:54.336Z,44.43
